Time;durP1;ratioP1;P1;durP2;ratioP2;P2;SDS_P1;SDS_P2;PMS_P1;PMS_P2;Temp;Humidity;BMP_temperature;BMP_pressure;BME280_temperature;BME280_humidity;BME280_pressure;Samples;Min_cycle;Max_cycle;Signal;HPM_P1;HPM_P2
2021/12/08 00:03:38;;;;;;;55.33;16.80;;;;;;;-5.06;91.74;100510.65;713810;1205;114384;-75
2021/12/08 00:18:49;;;;;;;31.80;11.60;;;;;;;-5.27;91.26;100519.58;713750;1177;115386;-73
2021/12/08 00:33:51;;;;;;;25.43;11.73;;;;;;;-5.26;91.90;100493.97;713740;1200;114427;-73
2021/12/08 00:48:53;;;;;;;26.98;10.58;;;;;;;-5.18;92.35;100474.19;713713;1177;114065;-74
2021/12/08 01:03:55;;;;;;;30.25;11.50;;;;;;;-4.87;92.57;100482.95;713748;1185;113989;-75
2021/12/08 01:18:57;;;;;;;27.00;10.30;;;;;;;-4.85;91.66;100489.72;713849;1190;115404;-75
2021/12/08 01:34:00;;;;;;;60.93;20.10;;;;;;;-5.09;91.90;100495.37;713768;1189;114048;-74
2021/12/08 01:49:04;;;;;;;21.70;9.30;;;;;;;-5.18;91.07;100489.53;713696;1180;113859;-74
2021/12/08 02:04:06;;;;;;;;;;;;;;;-5.22;90.71;100464.89;713984;1202;114381;-74
2021/12/08 02:19:09;;;;;;;34.17;12.53;;;;;;;-5.43;91.13;100439.75;713606;1206;99591;-74
2021/12/08 02:49:34;;;;;;;54.50;14.93;;;;;;;-5.53;90.54;100409.25;714846;1178;114109;-74
2021/12/08 03:04:37;;;;;;;54.35;16.85;;;;;;;-5.74;89.44;100401.97;713922;1200;115332;-75
2021/12/08 03:19:39;;;;;;;44.28;15.18;;;;;;;-6.13;88.83;100397.59;713684;1188;114004;-74
2021/12/08 03:34:51;;;;;;;68.55;24.45;;;;;;;-6.28;88.43;100393.60;714814;1200;114434;-72
2021/12/08 03:49:55;;;;;;;63.23;20.43;;;;;;;-6.44;88.56;100371.73;715502;1205;115556;-72
2021/12/08 04:04:57;;;;;;;50.18;17.90;;;;;;;-6.40;88.73;100363.14;715363;1205;115771;-72
2021/12/08 04:20:04;;;;;;;56.20;20.40;;;;;;;-6.44;87.74;100379.39;714685;1206;113974;-74
2021/12/08 04:35:09;;;;;;;31.90;12.65;;;;;;;-6.69;87.23;100400.19;714803;1186;115504;-72
2021/12/08 04:50:29;;;;;;;180.45;40.50;;;;;;;-6.60;87.49;100412.84;719778;1199;114517;-75
2021/12/08 05:06:03;;;;;;;41.95;13.50;;;;;;;-6.61;88.20;100418.80;713757;1198;115331;-73
2021/12/08 05:21:15;;;;;;;124.15;41.55;;;;;;;-6.38;88.10;100415.88;713722;1202;113960;-73
2021/12/08 05:36:19;;;;;;;144.17;39.67;;;;;;;-6.40;88.28;100422.73;713864;1200;115314;-73
2021/12/08 05:51:26;;;;;;;95.55;29.35;;;;;;;-6.23;88.74;100426.71;713865;1200;114552;-73
2021/12/08 06:06:29;;;;;;;62.48;22.85;;;;;;;-6.18;88.01;100414.70;713865;1200;114344;-73
2021/12/08 06:21:32;;;;;;;53.50;21.90;;;;;;;-6.61;87.62;100390.73;714144;1200;115292;-70
2021/12/08 06:36:42;;;;;;;76.57;21.80;;;;;;;-6.57;87.85;100388.95;714753;1177;114604;-75
2021/12/08 06:52:16;;;;;;;92.13;22.83;;;;;;;-6.65;87.49;100383.98;714764;1189;113948;-74
2021/12/08 07:07:19;;;;;;;79.95;22.15;;;;;;;-6.54;87.31;100379.53;714955;1192;114759;-74
2021/12/08 07:22:24;;;;;;;;;;;;;;;-6.54;86.60;100376.98;715147;1202;114008;-74
2021/12/08 07:37:32;;;;;;;115.63;37.55;;;;;;;-6.45;87.12;100383.66;715041;1202;101541;-74
2021/12/08 07:52:40;;;;;;;108.43;31.68;;;;;;;-6.33;87.09;100382.62;714987;1178;115274;-75
2021/12/08 08:07:44;;;;;;;146.50;35.15;;;;;;;-6.24;86.59;100385.02;715557;1177;114146;-77
2021/12/08 08:22:46;;;;;;;;;;;;;;;-6.12;86.31;100388.20;715179;1176;114147;-73
2021/12/08 08:37:51;;;;;;;78.48;22.58;;;;;;;-6.29;85.21;100427.66;715151;1200;100087;-74
2021/12/08 08:52:57;;;;;;;146.25;40.63;;;;;;;-6.20;85.11;100426.68;715182;1201;113988;-74
2021/12/08 09:08:16;;;;;;;167.60;40.60;;;;;;;-6.22;85.30;100408.80;714774;1178;114803;-74
2021/12/08 09:23:35;;;;;;;98.28;29.38;;;;;;;-6.07;84.98;100407.72;714405;1204;114756;-75
2021/12/08 09:38:46;;;;;;;125.08;38.45;;;;;;;-6.21;84.49;100392.62;714548;1180;114189;-74
2021/12/08 09:53:50;;;;;;;134.73;41.90;;;;;;;-6.04;83.73;100371.89;714237;1200;114093;-75
2021/12/08 10:08:57;;;;;;;73.77;22.13;;;;;;;-5.71;84.62;100381.48;714110;1202;114732;-73
2021/12/08 10:24:00;;;;;;;246.95;68.78;;;;;;;-5.88;82.91;100369.85;714194;1200;113984;-70
2021/12/08 10:39:14;;;;;;;269.77;69.63;;;;;;;-5.79;82.74;100342.43;714438;1202;114594;-70
2021/12/08 10:54:30;;;;;;;181.25;53.30;;;;;;;-5.78;82.89;100327.09;714220;1200;114627;-70
2021/12/08 11:09:43;;;;;;;75.17;24.17;;;;;;;-5.61;83.05;100290.11;714454;1201;114591;-71
2021/12/08 11:24:57;;;;;;;55.03;16.73;;;;;;;-5.39;83.26;100270.03;714257;1200;114129;-71
2021/12/08 11:40:02;;;;;;;73.50;21.95;;;;;;;-5.19;83.37;100265.31;714206;1202;113531;-71
2021/12/08 11:55:09;;;;;;;223.17;56.47;;;;;;;-5.20;83.53;100258.51;714337;1202;115822;-70
2021/12/08 12:10:15;;;;;;;107.25;33.50;;;;;;;-5.01;83.33;100238.42;714394;1205;114539;-70
2021/12/08 12:25:26;;;;;;;85.63;27.30;;;;;;;-5.01;84.06;100232.48;717060;1199;114231;-69
2021/12/08 12:40:34;;;;;;;96.13;29.20;;;;;;;-4.76;83.63;100203.72;716706;1205;115468;-71
2021/12/08 12:55:45;;;;;;;204.38;50.60;;;;;;;-4.56;84.30;100200.63;715055;1200;114211;-71
2021/12/08 13:10:49;;;;;;;132.33;35.73;;;;;;;-4.73;84.81;100229.23;714828;1200;114955;-69
2021/12/08 13:40:58;;;;;;;145.13;40.73;;;;;;;-4.79;85.99;100226.81;715114;1206;114777;-70
2021/12/08 13:56:01;;;;;;;94.53;30.83;;;;;;;-4.73;86.40;100224.93;715518;1203;114201;-69
2021/12/08 14:11:13;;;;;;;111.35;33.35;;;;;;;-4.62;87.42;100217.00;714795;1200;114296;-69
2021/12/08 14:26:22;;;;;;;71.80;25.80;;;;;;;-4.36;87.41;100234.20;715352;1200;115016;-70
2021/12/08 14:41:35;;;;;;;89.50;27.55;;;;;;;-4.18;88.08;100232.86;715119;1200;114187;-71
2021/12/08 14:56:39;;;;;;;72.20;24.05;;;;;;;-4.07;88.15;100221.48;715292;1204;113988;-69
2021/12/08 15:11:42;;;;;;;96.40;26.38;;;;;;;-4.16;86.47;100237.11;715051;1176;114429;-70
2021/12/08 15:26:45;;;;;;;144.20;39.73;;;;;;;-4.40;85.71;100224.09;715242;1176;115783;-69
2021/12/08 15:41:47;;;;;;;86.35;28.38;;;;;;;-4.57;85.33;100207.44;714969;1200;115616;-69
2021/12/08 15:56:52;;;;;;;64.27;23.57;;;;;;;-4.62;85.53;100219.56;714766;1200;115346;-70
2021/12/08 16:12:07;;;;;;;63.55;23.68;;;;;;;-4.72;85.07;100218.11;715433;1200;115769;-69
2021/12/08 16:27:14;;;;;;;61.97;20.93;;;;;;;-4.78;84.89;100205.46;715406;1203;113997;-69
2021/12/08 16:57:43;;;;;;;94.93;30.40;;;;;;;-4.95;83.45;100185.41;714920;1202;115363;-68
2021/12/08 17:12:47;;;;;;;56.48;19.68;;;;;;;-5.07;83.19;100181.45;714937;1182;115458;-69
2021/12/08 17:27:51;;;;;;;55.83;18.97;;;;;;;-5.07;82.58;100177.19;714871;1204;114985;-69
2021/12/08 17:42:56;;;;;;;56.97;20.13;;;;;;;-5.12;81.77;100185.84;714656;1202;114680;-70
2021/12/08 17:58:01;;;;;;;135.03;36.78;;;;;;;-5.10;81.46;100187.48;714898;1203;114654;-70
2021/12/08 18:13:05;;;;;;;167.17;42.43;;;;;;;-5.11;81.14;100177.29;714789;1200;115703;-70
2021/12/08 18:28:13;;;;;;;338.35;95.00;;;;;;;-5.21;80.06;100156.23;715261;1200;114913;-70
2021/12/08 18:43:16;;;;;;;196.93;52.67;;;;;;;-5.16;79.71;100158.66;714950;1176;114374;-69
2021/12/08 18:58:20;;;;;;;331.98;77.33;;;;;;;-5.14;79.27;100155.18;715177;1200;115729;-70
2021/12/08 19:13:26;;;;;;;140.90;37.17;;;;;;;-5.12;79.03;100168.79;715164;1201;114819;-69
2021/12/08 19:28:30;;;;;;;209.07;49.03;;;;;;;-5.28;78.52;100155.55;715003;1200;114640;-70
2021/12/08 19:43:35;;;;;;;212.75;46.63;;;;;;;-5.37;78.20;100123.35;715017;1200;114813;-69
2021/12/08 19:58:45;;;;;;;273.55;56.13;;;;;;;-5.35;77.91;100115.64;715044;1200;114370;-69
2021/12/08 20:13:50;;;;;;;218.58;44.40;;;;;;;-5.35;77.19;100110.52;715100;1178;114176;-71
2021/12/08 20:28:55;;;;;;;177.50;39.83;;;;;;;-5.30;76.54;100088.23;714950;1199;115464;-70
2021/12/08 20:44:03;;;;;;;128.90;27.15;;;;;;;-5.25;76.46;100057.41;714810;1178;115691;-71
2021/12/08 20:59:10;;;;;;;144.25;33.50;;;;;;;-5.19;75.59;100035.09;715397;1199;114595;-71
2021/12/08 21:14:14;;;;;;;135.27;33.17;;;;;;;-5.22;75.41;100049.67;715241;1200;115879;-71
2021/12/08 21:29:16;;;;;;;47.57;13.63;;;;;;;-5.19;74.65;100070.90;714377;1200;115396;-71
2021/12/08 21:44:19;;;;;;;57.03;16.37;;;;;;;-5.14;75.04;100067.38;713885;1200;114545;-71
2021/12/08 21:59:23;;;;;;;33.50;11.80;;;;;;;-5.20;74.30;100048.75;714195;1180;114823;-71
2021/12/08 22:14:26;;;;;;;24.75;9.15;;;;;;;-5.13;74.04;100057.09;714496;1200;114157;-71
2021/12/08 22:29:30;;;;;;;37.70;12.55;;;;;;;-5.00;74.58;100065.28;715056;1177;113826;-71
2021/12/08 22:44:32;;;;;;;56.28;14.10;;;;;;;-4.93;74.08;100077.02;714120;1205;113986;-71
2021/12/08 22:59:34;;;;;;;92.27;23.17;;;;;;;-4.91;74.60;100085.50;713816;1202;114612;-71
2021/12/08 23:14:37;;;;;;;35.53;12.23;;;;;;;-4.94;74.59;100075.33;714037;1200;114753;-71
2021/12/08 23:29:40;;;;;;;34.70;11.65;;;;;;;-5.00;74.84;100067.84;714693;1178;114005;-71
2021/12/08 23:44:43;;;;;;;33.17;9.30;;;;;;;-4.80;75.27;100071.55;715149;1179;114028;-72
2021/12/08 23:59:48;;;;;;;83.10;21.70;;;;;;;-4.92;75.00;100047.99;714014;1202;115325;-71
